sensor_id;sensor_type;location;lat;lon;timestamp;P1;durP1;ratioP1;P2;durP2;ratioP2
72674;SDS011;60752;53.962;9.614;2022-07-06T00:03:36;3.80;;;1.00;;
72674;SDS011;60752;53.962;9.614;2022-07-06T00:08:36;3.17;;;0.98;;
72674;SDS011;60752;53.962;9.614;2022-07-06T00:13:37;5.47;;;1.13;;
72674;SDS011;60752;53.962;9.614;2022-07-06T00:18:40;4.60;;;0.90;;
72674;SDS011;60752;53.962;9.614;2022-07-06T00:23:40;4.05;;;1.10;;
72674;SDS011;60752;53.962;9.614;2022-07-06T00:28:41;4.87;;;1.03;;
72674;SDS011;60752;53.962;9.614;2022-07-06T00:33:43;4.23;;;1.00;;
72674;SDS011;60752;53.962;9.614;2022-07-06T00:38:43;3.92;;;0.85;;
72674;SDS011;60752;53.962;9.614;2022-07-06T00:43:47;2.40;;;0.90;;
72674;SDS011;60752;53.962;9.614;2022-07-06T00:48:50;5.80;;;1.03;;
72674;SDS011;60752;53.962;9.614;2022-07-06T00:53:50;4.30;;;1.00;;
72674;SDS011;60752;53.962;9.614;2022-07-06T00:58:52;5.35;;;1.35;;
72674;SDS011;60752;53.962;9.614;2022-07-06T01:03:54;3.67;;;0.90;;
72674;SDS011;60752;53.962;9.614;2022-07-06T01:08:55;4.30;;;1.00;;
72674;SDS011;60752;53.962;9.614;2022-07-06T01:13:55;4.10;;;1.17;;
72674;SDS011;60752;53.962;9.614;2022-07-06T01:18:58;4.00;;;0.80;;
72674;SDS011;60752;53.962;9.614;2022-07-06T01:23:59;6.43;;;1.08;;
72674;SDS011;60752;53.962;9.614;2022-07-06T01:29:00;5.75;;;1.02;;
72674;SDS011;60752;53.962;9.614;2022-07-06T01:34:01;4.43;;;1.00;;
72674;SDS011;60752;53.962;9.614;2022-07-06T01:39:02;3.63;;;1.00;;
72674;SDS011;60752;53.962;9.614;2022-07-06T01:44:03;5.47;;;0.90;;
72674;SDS011;60752;53.962;9.614;2022-07-06T01:49:04;3.60;;;1.00;;
72674;SDS011;60752;53.962;9.614;2022-07-06T01:54:06;3.97;;;0.90;;
72674;SDS011;60752;53.962;9.614;2022-07-06T01:59:07;4.32;;;1.10;;
72674;SDS011;60752;53.962;9.614;2022-07-06T02:04:07;3.87;;;1.10;;
72674;SDS011;60752;53.962;9.614;2022-07-06T02:09:09;5.77;;;1.10;;
72674;SDS011;60752;53.962;9.614;2022-07-06T02:14:10;3.20;;;0.90;;
72674;SDS011;60752;53.962;9.614;2022-07-06T02:19:11;4.82;;;0.90;;
72674;SDS011;60752;53.962;9.614;2022-07-06T02:24:12;4.60;;;1.00;;
72674;SDS011;60752;53.962;9.614;2022-07-06T02:29:13;3.63;;;0.80;;
72674;SDS011;60752;53.962;9.614;2022-07-06T02:34:13;4.03;;;0.90;;
72674;SDS011;60752;53.962;9.614;2022-07-06T02:39:15;5.23;;;1.37;;
72674;SDS011;60752;53.962;9.614;2022-07-06T02:44:16;2.83;;;0.70;;
72674;SDS011;60752;53.962;9.614;2022-07-06T02:49:16;4.70;;;1.10;;
72674;SDS011;60752;53.962;9.614;2022-07-06T02:54:18;4.10;;;0.60;;
72674;SDS011;60752;53.962;9.614;2022-07-06T02:59:18;3.57;;;1.00;;
72674;SDS011;60752;53.962;9.614;2022-07-06T03:04:19;3.97;;;0.90;;
72674;SDS011;60752;53.962;9.614;2022-07-06T03:09:21;5.90;;;1.00;;
72674;SDS011;60752;53.962;9.614;2022-07-06T03:14:21;4.95;;;0.90;;
72674;SDS011;60752;53.962;9.614;2022-07-06T03:19:22;2.90;;;0.80;;
72674;SDS011;60752;53.962;9.614;2022-07-06T03:24:23;6.40;;;0.93;;
72674;SDS011;60752;53.962;9.614;2022-07-06T03:29:24;5.15;;;1.00;;
72674;SDS011;60752;53.962;9.614;2022-07-06T03:34:24;5.87;;;0.83;;
72674;SDS011;60752;53.962;9.614;2022-07-06T03:39:26;3.43;;;0.87;;
72674;SDS011;60752;53.962;9.614;2022-07-06T03:44:26;3.03;;;0.80;;
72674;SDS011;60752;53.962;9.614;2022-07-06T03:49:27;4.00;;;1.10;;
72674;SDS011;60752;53.962;9.614;2022-07-06T03:54:29;3.87;;;0.80;;
72674;SDS011;60752;53.962;9.614;2022-07-06T03:59:29;3.67;;;0.73;;
72674;SDS011;60752;53.962;9.614;2022-07-06T04:04:30;4.20;;;0.93;;
72674;SDS011;60752;53.962;9.614;2022-07-06T04:09:32;4.30;;;0.82;;
72674;SDS011;60752;53.962;9.614;2022-07-06T04:14:32;4.83;;;1.23;;
72674;SDS011;60752;53.962;9.614;2022-07-06T04:19:33;5.97;;;1.00;;
72674;SDS011;60752;53.962;9.614;2022-07-06T04:24:35;3.63;;;0.68;;
72674;SDS011;60752;53.962;9.614;2022-07-06T04:29:35;3.30;;;0.93;;
72674;SDS011;60752;53.962;9.614;2022-07-06T04:34:36;5.37;;;0.80;;
72674;SDS011;60752;53.962;9.614;2022-07-06T04:39:37;4.77;;;1.00;;
72674;SDS011;60752;53.962;9.614;2022-07-06T04:44:38;3.85;;;0.77;;
72674;SDS011;60752;53.962;9.614;2022-07-06T04:49:38;5.23;;;0.90;;
72674;SDS011;60752;53.962;9.614;2022-07-06T04:54:40;4.27;;;0.90;;
72674;SDS011;60752;53.962;9.614;2022-07-06T04:59:41;5.30;;;1.63;;
72674;SDS011;60752;53.962;9.614;2022-07-06T05:04:41;5.00;;;1.00;;
72674;SDS011;60752;53.962;9.614;2022-07-06T05:09:43;4.97;;;0.97;;
72674;SDS011;60752;53.962;9.614;2022-07-06T05:14:43;5.00;;;1.42;;
72674;SDS011;60752;53.962;9.614;2022-07-06T05:19:44;3.70;;;0.90;;
72674;SDS011;60752;53.962;9.614;2022-07-06T05:24:45;2.73;;;0.97;;
72674;SDS011;60752;53.962;9.614;2022-07-06T05:29:46;3.75;;;1.00;;
72674;SDS011;60752;53.962;9.614;2022-07-06T05:34:47;10.57;;;0.80;;
72674;SDS011;60752;53.962;9.614;2022-07-06T05:39:48;7.40;;;0.93;;
72674;SDS011;60752;53.962;9.614;2022-07-06T05:44:49;5.85;;;1.27;;
72674;SDS011;60752;53.962;9.614;2022-07-06T05:49:49;5.27;;;1.00;;
72674;SDS011;60752;53.962;9.614;2022-07-06T05:54:51;3.47;;;1.13;;
72674;SDS011;60752;53.962;9.614;2022-07-06T05:59:52;2.90;;;0.70;;
72674;SDS011;60752;53.962;9.614;2022-07-06T06:04:52;4.57;;;0.90;;
72674;SDS011;60752;53.962;9.614;2022-07-06T06:09:54;1.60;;;0.63;;
72674;SDS011;60752;53.962;9.614;2022-07-06T06:14:54;4.63;;;1.00;;
72674;SDS011;60752;53.962;9.614;2022-07-06T06:19:55;3.40;;;0.80;;
72674;SDS011;60752;53.962;9.614;2022-07-06T06:24:57;3.63;;;0.90;;
72674;SDS011;60752;53.962;9.614;2022-07-06T06:29:57;3.90;;;1.00;;
72674;SDS011;60752;53.962;9.614;2022-07-06T06:34:58;3.10;;;0.80;;
72674;SDS011;60752;53.962;9.614;2022-07-06T06:40:00;2.27;;;0.60;;
72674;SDS011;60752;53.962;9.614;2022-07-06T06:45:00;4.63;;;0.70;;
72674;SDS011;60752;53.962;9.614;2022-07-06T06:50:01;2.53;;;0.70;;
72674;SDS011;60752;53.962;9.614;2022-07-06T06:55:03;4.00;;;0.90;;
72674;SDS011;60752;53.962;9.614;2022-07-06T07:00:04;3.53;;;0.60;;
72674;SDS011;60752;53.962;9.614;2022-07-06T07:05:06;4.47;;;0.87;;
72674;SDS011;60752;53.962;9.614;2022-07-06T07:10:09;3.55;;;0.90;;
72674;SDS011;60752;53.962;9.614;2022-07-06T07:15:09;2.67;;;0.70;;
72674;SDS011;60752;53.962;9.614;2022-07-06T07:20:10;2.10;;;0.47;;
72674;SDS011;60752;53.962;9.614;2022-07-06T07:25:13;2.55;;;0.90;;
72674;SDS011;60752;53.962;9.614;2022-07-06T07:30:13;2.88;;;0.80;;
72674;SDS011;60752;53.962;9.614;2022-07-06T07:35:14;8.90;;;0.90;;
72674;SDS011;60752;53.962;9.614;2022-07-06T07:40:16;2.83;;;0.90;;
72674;SDS011;60752;53.962;9.614;2022-07-06T07:45:17;4.60;;;1.00;;
72674;SDS011;60752;53.962;9.614;2022-07-06T07:50:17;4.90;;;0.90;;
72674;SDS011;60752;53.962;9.614;2022-07-06T07:55:19;5.30;;;0.90;;
72674;SDS011;60752;53.962;9.614;2022-07-06T08:00:19;6.73;;;0.80;;
72674;SDS011;60752;53.962;9.614;2022-07-06T08:05:20;4.20;;;0.80;;
72674;SDS011;60752;53.962;9.614;2022-07-06T08:10:22;2.80;;;0.80;;
72674;SDS011;60752;53.962;9.614;2022-07-06T08:15:22;2.17;;;0.60;;
72674;SDS011;60752;53.962;9.614;2022-07-06T08:20:23;1.90;;;0.60;;
72674;SDS011;60752;53.962;9.614;2022-07-06T08:25:25;2.83;;;0.60;;
72674;SDS011;60752;53.962;9.614;2022-07-06T08:30:25;2.20;;;0.60;;
72674;SDS011;60752;53.962;9.614;2022-07-06T08:35:26;1.53;;;0.57;;
72674;SDS011;60752;53.962;9.614;2022-07-06T08:40:28;1.55;;;0.47;;
72674;SDS011;60752;53.962;9.614;2022-07-06T08:45:32;2.90;;;0.60;;
72674;SDS011;60752;53.962;9.614;2022-07-06T08:50:34;2.15;;;0.70;;
72674;SDS011;60752;53.962;9.614;2022-07-06T08:55:36;3.67;;;0.80;;
72674;SDS011;60752;53.962;9.614;2022-07-06T09:00:37;3.97;;;0.80;;
72674;SDS011;60752;53.962;9.614;2022-07-06T09:05:37;1.97;;;0.60;;
72674;SDS011;60752;53.962;9.614;2022-07-06T09:10:41;2.88;;;0.70;;
72674;SDS011;60752;53.962;9.614;2022-07-06T09:15:42;3.47;;;0.67;;
72674;SDS011;60752;53.962;9.614;2022-07-06T09:20:43;4.27;;;0.70;;
72674;SDS011;60752;53.962;9.614;2022-07-06T09:25:48;2.70;;;0.80;;
72674;SDS011;60752;53.962;9.614;2022-07-06T09:30:48;2.15;;;0.60;;
72674;SDS011;60752;53.962;9.614;2022-07-06T09:35:49;1.90;;;0.60;;
72674;SDS011;60752;53.962;9.614;2022-07-06T09:40:51;3.63;;;0.70;;
72674;SDS011;60752;53.962;9.614;2022-07-06T09:45:52;4.30;;;0.60;;
72674;SDS011;60752;53.962;9.614;2022-07-06T09:50:54;3.95;;;0.93;;
72674;SDS011;60752;53.962;9.614;2022-07-06T09:55:57;3.03;;;0.70;;
72674;SDS011;60752;53.962;9.614;2022-07-06T10:00:57;3.40;;;0.77;;
72674;SDS011;60752;53.962;9.614;2022-07-06T10:05:58;3.67;;;0.80;;
72674;SDS011;60752;53.962;9.614;2022-07-06T10:11:00;4.20;;;0.80;;
72674;SDS011;60752;53.962;9.614;2022-07-06T10:16:02;7.17;;;0.90;;
72674;SDS011;60752;53.962;9.614;2022-07-06T10:21:02;2.83;;;0.70;;
72674;SDS011;60752;53.962;9.614;2022-07-06T10:26:05;1.20;;;0.57;;
72674;SDS011;60752;53.962;9.614;2022-07-06T10:31:06;3.42;;;0.70;;
72674;SDS011;60752;53.962;9.614;2022-07-06T10:36:08;3.65;;;0.80;;
72674;SDS011;60752;53.962;9.614;2022-07-06T10:41:10;1.50;;;0.70;;
72674;SDS011;60752;53.962;9.614;2022-07-06T10:46:11;4.25;;;0.70;;
72674;SDS011;60752;53.962;9.614;2022-07-06T10:51:22;3.97;;;0.50;;
72674;SDS011;60752;53.962;9.614;2022-07-06T10:56:32;2.73;;;0.60;;
72674;SDS011;60752;53.962;9.614;2022-07-06T11:01:35;1.52;;;0.60;;
72674;SDS011;60752;53.962;9.614;2022-07-06T11:06:36;3.53;;;0.63;;
72674;SDS011;60752;53.962;9.614;2022-07-06T11:11:40;3.10;;;0.70;;
72674;SDS011;60752;53.962;9.614;2022-07-06T11:22:05;6.70;;;0.60;;
72674;SDS011;60752;53.962;9.614;2022-07-06T11:27:08;2.78;;;0.55;;
72674;SDS011;60752;53.962;9.614;2022-07-06T11:32:08;5.75;;;0.60;;
72674;SDS011;60752;53.962;9.614;2022-07-06T11:37:09;4.67;;;1.40;;
72674;SDS011;60752;53.962;9.614;2022-07-06T11:42:13;4.30;;;0.50;;
72674;SDS011;60752;53.962;9.614;2022-07-06T11:47:15;2.17;;;0.50;;
72674;SDS011;60752;53.962;9.614;2022-07-06T11:52:15;4.28;;;0.55;;
72674;SDS011;60752;53.962;9.614;2022-07-06T11:57:17;3.37;;;0.50;;
72674;SDS011;60752;53.962;9.614;2022-07-06T12:02:18;2.17;;;0.60;;
72674;SDS011;60752;53.962;9.614;2022-07-06T12:07:18;3.13;;;0.50;;
72674;SDS011;60752;53.962;9.614;2022-07-06T12:12:20;2.83;;;0.60;;
72674;SDS011;60752;53.962;9.614;2022-07-06T12:17:21;3.57;;;0.70;;
72674;SDS011;60752;53.962;9.614;2022-07-06T12:22:24;2.97;;;0.50;;
72674;SDS011;60752;53.962;9.614;2022-07-06T12:27:26;3.83;;;0.60;;
72674;SDS011;60752;53.962;9.614;2022-07-06T12:32:26;2.63;;;0.50;;
72674;SDS011;60752;53.962;9.614;2022-07-06T12:37:27;4.17;;;0.90;;
72674;SDS011;60752;53.962;9.614;2022-07-06T12:42:29;5.03;;;0.70;;
72674;SDS011;60752;53.962;9.614;2022-07-06T12:47:30;1.40;;;0.50;;
72674;SDS011;60752;53.962;9.614;2022-07-06T12:52:30;2.63;;;0.80;;
72674;SDS011;60752;53.962;9.614;2022-07-06T12:57:43;1.20;;;0.50;;
72674;SDS011;60752;53.962;9.614;2022-07-06T13:02:45;3.17;;;0.60;;
72674;SDS011;60752;53.962;9.614;2022-07-06T13:07:47;2.67;;;0.70;;
72674;SDS011;60752;53.962;9.614;2022-07-06T13:12:51;3.05;;;0.63;;
72674;SDS011;60752;53.962;9.614;2022-07-06T13:17:52;3.13;;;0.60;;
72674;SDS011;60752;53.962;9.614;2022-07-06T13:22:52;4.70;;;0.80;;
72674;SDS011;60752;53.962;9.614;2022-07-06T13:27:54;3.50;;;0.80;;
72674;SDS011;60752;53.962;9.614;2022-07-06T13:32:54;4.50;;;0.60;;
72674;SDS011;60752;53.962;9.614;2022-07-06T13:37:55;2.10;;;0.60;;
72674;SDS011;60752;53.962;9.614;2022-07-06T13:42:57;1.70;;;0.60;;
72674;SDS011;60752;53.962;9.614;2022-07-06T13:47:57;3.30;;;0.60;;
72674;SDS011;60752;53.962;9.614;2022-07-06T13:52:58;1.80;;;0.60;;
72674;SDS011;60752;53.962;9.614;2022-07-06T13:58:00;5.07;;;0.80;;
72674;SDS011;60752;53.962;9.614;2022-07-06T14:03:00;3.00;;;0.50;;
72674;SDS011;60752;53.962;9.614;2022-07-06T14:08:01;3.90;;;0.90;;
72674;SDS011;60752;53.962;9.614;2022-07-06T14:13:03;6.13;;;0.90;;
72674;SDS011;60752;53.962;9.614;2022-07-06T14:18:03;2.93;;;0.63;;
72674;SDS011;60752;53.962;9.614;2022-07-06T14:23:04;4.03;;;0.73;;
72674;SDS011;60752;53.962;9.614;2022-07-06T14:28:06;1.80;;;0.60;;
72674;SDS011;60752;53.962;9.614;2022-07-06T14:33:07;2.67;;;0.77;;
72674;SDS011;60752;53.962;9.614;2022-07-06T14:38:08;2.70;;;0.70;;
72674;SDS011;60752;53.962;9.614;2022-07-06T14:43:10;3.37;;;0.80;;
72674;SDS011;60752;53.962;9.614;2022-07-06T14:48:11;3.47;;;0.63;;
72674;SDS011;60752;53.962;9.614;2022-07-06T14:53:12;5.53;;;1.00;;
72674;SDS011;60752;53.962;9.614;2022-07-06T14:58:14;4.30;;;0.70;;
72674;SDS011;60752;53.962;9.614;2022-07-06T15:03:14;6.97;;;0.90;;
72674;SDS011;60752;53.962;9.614;2022-07-06T15:08:15;5.40;;;0.83;;
72674;SDS011;60752;53.962;9.614;2022-07-06T15:13:17;1.87;;;0.70;;
72674;SDS011;60752;53.962;9.614;2022-07-06T15:18:17;1.80;;;0.60;;
72674;SDS011;60752;53.962;9.614;2022-07-06T15:23:18;2.90;;;0.60;;
72674;SDS011;60752;53.962;9.614;2022-07-06T15:28:20;2.77;;;0.50;;
72674;SDS011;60752;53.962;9.614;2022-07-06T15:33:20;4.13;;;0.80;;
72674;SDS011;60752;53.962;9.614;2022-07-06T15:38:21;4.13;;;0.80;;
72674;SDS011;60752;53.962;9.614;2022-07-06T15:43:23;6.93;;;1.20;;
72674;SDS011;60752;53.962;9.614;2022-07-06T15:48:23;2.75;;;0.65;;
72674;SDS011;60752;53.962;9.614;2022-07-06T15:53:24;2.90;;;0.63;;
72674;SDS011;60752;53.962;9.614;2022-07-06T15:58:26;3.40;;;0.80;;
72674;SDS011;60752;53.962;9.614;2022-07-06T16:03:27;4.13;;;1.20;;
72674;SDS011;60752;53.962;9.614;2022-07-06T16:08:27;5.20;;;0.90;;
72674;SDS011;60752;53.962;9.614;2022-07-06T16:13:29;2.78;;;0.90;;
72674;SDS011;60752;53.962;9.614;2022-07-06T16:18:29;9.57;;;1.10;;
72674;SDS011;60752;53.962;9.614;2022-07-06T16:23:30;3.57;;;0.93;;
72674;SDS011;60752;53.962;9.614;2022-07-06T16:28:32;5.65;;;0.90;;
72674;SDS011;60752;53.962;9.614;2022-07-06T16:33:33;4.10;;;0.73;;
72674;SDS011;60752;53.962;9.614;2022-07-06T16:38:34;6.17;;;1.10;;
72674;SDS011;60752;53.962;9.614;2022-07-06T16:43:36;4.43;;;0.90;;
72674;SDS011;60752;53.962;9.614;2022-07-06T16:48:36;5.20;;;1.02;;
72674;SDS011;60752;53.962;9.614;2022-07-06T16:53:37;3.40;;;0.90;;
72674;SDS011;60752;53.962;9.614;2022-07-06T16:58:39;3.13;;;0.90;;
72674;SDS011;60752;53.962;9.614;2022-07-06T17:03:39;4.15;;;0.90;;
72674;SDS011;60752;53.962;9.614;2022-07-06T17:08:40;6.47;;;1.10;;
72674;SDS011;60752;53.962;9.614;2022-07-06T17:13:42;4.33;;;1.10;;
72674;SDS011;60752;53.962;9.614;2022-07-06T17:18:42;3.00;;;0.93;;
72674;SDS011;60752;53.962;9.614;2022-07-06T17:23:43;4.37;;;1.00;;
72674;SDS011;60752;53.962;9.614;2022-07-06T17:28:45;4.60;;;1.00;;
72674;SDS011;60752;53.962;9.614;2022-07-06T17:33:45;3.25;;;1.00;;
72674;SDS011;60752;53.962;9.614;2022-07-06T17:38:46;4.87;;;1.00;;
72674;SDS011;60752;53.962;9.614;2022-07-06T17:43:47;4.00;;;1.10;;
72674;SDS011;60752;53.962;9.614;2022-07-06T17:48:48;3.58;;;1.15;;
72674;SDS011;60752;53.962;9.614;2022-07-06T17:53:48;4.30;;;0.93;;
72674;SDS011;60752;53.962;9.614;2022-07-06T17:58:50;4.40;;;1.37;;
72674;SDS011;60752;53.962;9.614;2022-07-06T18:03:50;4.00;;;1.23;;
72674;SDS011;60752;53.962;9.614;2022-07-06T18:08:51;6.20;;;1.17;;
72674;SDS011;60752;53.962;9.614;2022-07-06T18:13:53;6.23;;;1.47;;
72674;SDS011;60752;53.962;9.614;2022-07-06T18:18:53;3.42;;;1.13;;
72674;SDS011;60752;53.962;9.614;2022-07-06T18:23:54;5.63;;;1.40;;
72674;SDS011;60752;53.962;9.614;2022-07-06T18:28:56;4.18;;;1.10;;
72674;SDS011;60752;53.962;9.614;2022-07-06T18:33:56;5.70;;;1.07;;
72674;SDS011;60752;53.962;9.614;2022-07-06T18:38:57;5.07;;;1.00;;
72674;SDS011;60752;53.962;9.614;2022-07-06T18:43:59;3.10;;;1.00;;
72674;SDS011;60752;53.962;9.614;2022-07-06T18:48:59;4.00;;;1.00;;
72674;SDS011;60752;53.962;9.614;2022-07-06T18:54:00;4.37;;;1.40;;
72674;SDS011;60752;53.962;9.614;2022-07-06T18:59:02;4.23;;;1.83;;
72674;SDS011;60752;53.962;9.614;2022-07-06T19:04:02;4.13;;;1.30;;
72674;SDS011;60752;53.962;9.614;2022-07-06T19:09:03;6.67;;;1.70;;
72674;SDS011;60752;53.962;9.614;2022-07-06T19:14:05;4.63;;;1.30;;
72674;SDS011;60752;53.962;9.614;2022-07-06T19:19:05;3.80;;;1.40;;
72674;SDS011;60752;53.962;9.614;2022-07-06T19:24:06;5.63;;;1.25;;
72674;SDS011;60752;53.962;9.614;2022-07-06T19:29:08;5.57;;;1.50;;
72674;SDS011;60752;53.962;9.614;2022-07-06T19:34:08;3.55;;;1.10;;
72674;SDS011;60752;53.962;9.614;2022-07-06T19:39:09;3.20;;;1.13;;
72674;SDS011;60752;53.962;9.614;2022-07-06T19:44:11;5.20;;;1.30;;
72674;SDS011;60752;53.962;9.614;2022-07-06T19:49:12;3.63;;;1.03;;
72674;SDS011;60752;53.962;9.614;2022-07-06T19:54:12;3.20;;;1.25;;
72674;SDS011;60752;53.962;9.614;2022-07-06T19:59:14;6.07;;;1.60;;
72674;SDS011;60752;53.962;9.614;2022-07-06T20:04:15;4.43;;;1.33;;
72674;SDS011;60752;53.962;9.614;2022-07-06T20:09:15;4.93;;;1.33;;
72674;SDS011;60752;53.962;9.614;2022-07-06T20:14:17;3.77;;;1.40;;
72674;SDS011;60752;53.962;9.614;2022-07-06T20:19:18;5.57;;;1.40;;
72674;SDS011;60752;53.962;9.614;2022-07-06T20:24:18;4.90;;;1.70;;
72674;SDS011;60752;53.962;9.614;2022-07-06T20:29:20;5.93;;;1.47;;
72674;SDS011;60752;53.962;9.614;2022-07-06T20:34:20;4.30;;;1.70;;
72674;SDS011;60752;53.962;9.614;2022-07-06T20:39:21;4.70;;;1.37;;
72674;SDS011;60752;53.962;9.614;2022-07-06T20:44:23;5.47;;;1.43;;
72674;SDS011;60752;53.962;9.614;2022-07-06T20:49:23;4.63;;;1.63;;
72674;SDS011;60752;53.962;9.614;2022-07-06T20:54:24;5.37;;;1.77;;
72674;SDS011;60752;53.962;9.614;2022-07-06T20:59:25;4.90;;;2.23;;
72674;SDS011;60752;53.962;9.614;2022-07-06T21:04:26;5.73;;;2.20;;
72674;SDS011;60752;53.962;9.614;2022-07-06T21:09:26;7.17;;;2.40;;
72674;SDS011;60752;53.962;9.614;2022-07-06T21:14:28;6.80;;;2.40;;
72674;SDS011;60752;53.962;9.614;2022-07-06T21:19:28;4.85;;;2.40;;
72674;SDS011;60752;53.962;9.614;2022-07-06T21:24:29;6.20;;;2.70;;
72674;SDS011;60752;53.962;9.614;2022-07-06T21:29:31;7.93;;;3.33;;
72674;SDS011;60752;53.962;9.614;2022-07-06T21:34:31;5.75;;;3.05;;
72674;SDS011;60752;53.962;9.614;2022-07-06T21:39:32;8.20;;;3.00;;
72674;SDS011;60752;53.962;9.614;2022-07-06T21:44:33;8.53;;;4.50;;
72674;SDS011;60752;53.962;9.614;2022-07-06T21:49:34;8.15;;;3.80;;
72674;SDS011;60752;53.962;9.614;2022-07-06T21:54:34;6.07;;;3.80;;
72674;SDS011;60752;53.962;9.614;2022-07-06T21:59:36;10.53;;;4.40;;
72674;SDS011;60752;53.962;9.614;2022-07-06T22:04:37;9.90;;;4.10;;
72674;SDS011;60752;53.962;9.614;2022-07-06T22:09:37;6.93;;;3.80;;
72674;SDS011;60752;53.962;9.614;2022-07-06T22:14:39;6.20;;;3.73;;
72674;SDS011;60752;53.962;9.614;2022-07-06T22:19:39;6.03;;;4.22;;
72674;SDS011;60752;53.962;9.614;2022-07-06T22:24:40;8.17;;;4.00;;
72674;SDS011;60752;53.962;9.614;2022-07-06T22:29:42;7.03;;;3.70;;
72674;SDS011;60752;53.962;9.614;2022-07-06T22:34:42;6.15;;;3.17;;
72674;SDS011;60752;53.962;9.614;2022-07-06T22:39:43;5.50;;;3.17;;
72674;SDS011;60752;53.962;9.614;2022-07-06T22:44:45;5.23;;;3.07;;
72674;SDS011;60752;53.962;9.614;2022-07-06T22:49:45;4.78;;;2.70;;
72674;SDS011;60752;53.962;9.614;2022-07-06T22:54:45;6.57;;;3.00;;
72674;SDS011;60752;53.962;9.614;2022-07-06T22:59:47;5.93;;;2.80;;
72674;SDS011;60752;53.962;9.614;2022-07-06T23:04:48;4.68;;;2.95;;
72674;SDS011;60752;53.962;9.614;2022-07-06T23:09:48;4.50;;;2.77;;
72674;SDS011;60752;53.962;9.614;2022-07-06T23:14:50;4.10;;;2.30;;
72674;SDS011;60752;53.962;9.614;2022-07-06T23:19:50;5.30;;;2.50;;
72674;SDS011;60752;53.962;9.614;2022-07-06T23:24:52;4.67;;;2.90;;
72674;SDS011;60752;53.962;9.614;2022-07-06T23:29:54;4.90;;;3.05;;
72674;SDS011;60752;53.962;9.614;2022-07-06T23:34:54;6.47;;;2.97;;
72674;SDS011;60752;53.962;9.614;2022-07-06T23:39:55;4.63;;;2.50;;
72674;SDS011;60752;53.962;9.614;2022-07-06T23:44:56;6.63;;;3.10;;
72674;SDS011;60752;53.962;9.614;2022-07-06T23:49:57;4.95;;;3.10;;
72674;SDS011;60752;53.962;9.614;2022-07-06T23:54:57;4.40;;;2.60;;
72674;SDS011;60752;53.962;9.614;2022-07-06T23:59:59;4.53;;;2.53;;
